createdAt,value
2023-05-12T00:01:26.275Z,3.70
2023-05-12T00:05:31.956Z,3.13
2023-05-12T00:09:37.412Z,3.70
2023-05-12T00:13:43.119Z,3.23
2023-05-12T00:17:48.753Z,3.53
2023-05-12T00:21:54.251Z,3.50
2023-05-12T00:25:59.780Z,3.40
2023-05-12T00:30:06.970Z,3.23
2023-05-12T00:34:12.431Z,3.30
2023-05-12T00:38:17.868Z,3.00
2023-05-12T00:42:23.348Z,3.10
2023-05-12T00:46:28.974Z,3.43
2023-05-12T00:50:35.245Z,3.77
2023-05-12T00:54:42.592Z,3.70
2023-05-12T00:58:48.096Z,3.83
2023-05-12T01:02:53.777Z,3.60
2023-05-12T01:07:23.621Z,4.07
2023-05-12T01:11:29.081Z,3.90
2023-05-12T01:15:35.325Z,4.10
2023-05-12T01:19:47.853Z,3.80
2023-05-12T01:23:59.657Z,3.50
2023-05-12T01:28:05.792Z,3.70
2023-05-12T01:32:11.465Z,4.37
2023-05-12T01:36:16.941Z,4.63
2023-05-12T01:40:22.730Z,4.30
2023-05-12T01:44:28.318Z,4.10
2023-05-12T01:48:33.794Z,4.07
2023-05-12T01:52:39.271Z,4.10
2023-05-12T01:56:44.827Z,4.50
2023-05-12T02:00:50.281Z,3.87
2023-05-12T02:04:55.843Z,4.40
2023-05-12T02:09:01.317Z,3.97
2023-05-12T02:13:07.063Z,4.80
2023-05-12T02:17:12.568Z,4.40
2023-05-12T02:21:17.991Z,4.10
2023-05-12T02:25:23.452Z,4.23
2023-05-12T02:29:28.912Z,3.93
2023-05-12T02:33:34.415Z,4.00
2023-05-12T02:37:39.940Z,4.07
2023-05-12T02:41:45.377Z,4.17
2023-05-12T02:45:51.888Z,4.30
2023-05-12T02:49:57.986Z,4.00
2023-05-12T02:54:03.542Z,4.30
2023-05-12T02:58:08.990Z,4.30
2023-05-12T03:02:14.514Z,5.03
2023-05-12T03:06:20.036Z,3.90
2023-05-12T03:10:25.845Z,4.10
2023-05-12T03:14:31.329Z,4.30
2023-05-12T03:18:36.862Z,4.50
2023-05-12T03:22:42.491Z,4.10
2023-05-12T03:26:48.197Z,4.33
2023-05-12T03:30:54.256Z,4.87
2023-05-12T03:34:59.728Z,4.50
2023-05-12T03:39:05.349Z,4.90
2023-05-12T03:43:10.807Z,5.20
2023-05-12T03:47:16.299Z,4.57
2023-05-12T03:51:21.851Z,5.10
2023-05-12T03:55:27.300Z,5.00
2023-05-12T03:59:32.806Z,5.10
2023-05-12T04:03:38.488Z,4.77
2023-05-12T04:07:44.003Z,4.50
2023-05-12T04:11:49.487Z,4.60
2023-05-12T04:15:59.337Z,4.70
2023-05-12T04:20:05.456Z,4.87
2023-05-12T04:24:11.209Z,4.20
2023-05-12T04:28:16.680Z,4.50
2023-05-12T04:32:22.174Z,5.20
2023-05-12T04:36:27.847Z,4.20
2023-05-12T04:40:34.877Z,4.67
2023-05-12T04:44:40.876Z,4.87
2023-05-12T04:48:46.483Z,5.00
2023-05-12T04:52:52.269Z,5.10
2023-05-12T04:56:58.163Z,4.50
2023-05-12T05:01:03.790Z,4.93
2023-05-12T05:05:09.837Z,4.67
2023-05-12T05:09:15.532Z,4.77
2023-05-12T05:13:21.015Z,4.50
2023-05-12T05:17:26.711Z,4.30
2023-05-12T05:21:32.566Z,4.80
2023-05-12T05:25:39.414Z,4.63
2023-05-12T05:29:44.954Z,4.13
2023-05-12T05:33:50.679Z,4.20
2023-05-12T05:37:56.194Z,4.00
2023-05-12T05:42:01.675Z,4.67
2023-05-12T05:46:08.478Z,4.23
2023-05-12T05:50:14.170Z,4.10
2023-05-12T05:54:19.638Z,4.13
2023-05-12T05:58:25.161Z,4.63
2023-05-12T06:02:33.860Z,4.50
2023-05-12T06:06:39.830Z,4.90
2023-05-12T06:10:45.450Z,4.40
2023-05-12T06:14:51.258Z,4.17
2023-05-12T06:18:56.754Z,4.43
2023-05-12T06:23:05.656Z,4.70
2023-05-12T06:27:11.384Z,4.60
2023-05-12T06:31:17.341Z,4.23
2023-05-12T06:35:22.889Z,4.00
2023-05-12T06:39:28.364Z,3.97
2023-05-12T06:43:33.862Z,3.90
2023-05-12T06:47:40.336Z,3.67
2023-05-12T06:51:47.029Z,4.23
2023-05-12T06:55:53.921Z,4.20
2023-05-12T07:00:00.606Z,3.80
2023-05-12T07:04:06.688Z,4.10
2023-05-12T07:08:12.488Z,4.00
2023-05-12T07:12:19.238Z,3.70
2023-05-12T07:16:24.987Z,3.93
2023-05-12T07:20:30.501Z,4.10
2023-05-12T07:24:36.074Z,4.27
2023-05-12T07:28:41.705Z,4.30
2023-05-12T07:32:47.261Z,4.30
2023-05-12T07:36:52.846Z,3.97
2023-05-12T07:41:00.142Z,4.00
2023-05-12T07:45:06.437Z,4.43
2023-05-12T07:49:11.967Z,4.87
2023-05-12T07:53:17.382Z,4.17
2023-05-12T07:57:22.878Z,4.27
2023-05-12T08:01:28.366Z,4.07
2023-05-12T08:05:35.123Z,4.07
2023-05-12T08:09:40.652Z,3.93
2023-05-12T08:13:48.732Z,3.53
2023-05-12T08:17:54.252Z,4.13
2023-05-12T08:21:59.705Z,4.07
2023-05-12T08:26:05.470Z,4.07
2023-05-12T08:30:11.744Z,3.87
2023-05-12T08:34:17.188Z,3.97
2023-05-12T08:38:22.723Z,3.53
2023-05-12T08:42:42.944Z,3.20
2023-05-12T08:47:02.904Z,4.10
2023-05-12T08:51:11.995Z,4.40
2023-05-12T08:55:19.736Z,4.20
2023-05-12T08:59:26.047Z,3.80
2023-05-12T09:03:31.589Z,3.70
2023-05-12T09:07:44.344Z,3.77
2023-05-12T09:11:53.251Z,4.27
2023-05-12T09:16:01.062Z,3.70
2023-05-12T09:20:11.333Z,4.50
2023-05-12T09:24:21.153Z,3.70
2023-05-12T09:28:38.673Z,3.87
2023-05-12T09:32:44.232Z,3.30
2023-05-12T09:37:01.307Z,3.60
2023-05-12T09:41:06.799Z,3.50
2023-05-12T09:45:14.757Z,3.13
2023-05-12T09:49:27.993Z,4.13
2023-05-12T09:53:43.032Z,4.03
2023-05-12T09:57:48.725Z,3.80
2023-05-12T10:01:58.535Z,3.30
2023-05-12T10:06:08.582Z,3.40
2023-05-12T10:10:24.338Z,3.77
2023-05-12T10:14:30.275Z,3.80
2023-05-12T10:18:36.116Z,3.53
2023-05-12T10:22:42.545Z,3.90
2023-05-12T10:26:48.054Z,3.50
2023-05-12T10:30:54.578Z,3.43
2023-05-12T10:35:18.901Z,3.10
2023-05-12T10:39:32.925Z,3.70
2023-05-12T10:43:48.124Z,3.50
2023-05-12T10:48:07.260Z,3.60
2023-05-12T10:52:13.814Z,4.00
2023-05-12T10:56:25.303Z,3.40
2023-05-12T11:00:31.425Z,3.47
2023-05-12T11:04:59.927Z,4.00
2023-05-12T11:09:06.620Z,3.07
2023-05-12T11:13:12.465Z,4.10
2023-05-12T11:17:17.936Z,4.00
2023-05-12T11:21:25.156Z,3.87
2023-05-12T11:25:30.979Z,3.70
2023-05-12T11:29:36.832Z,3.70
2023-05-12T11:33:42.303Z,3.60
2023-05-12T11:37:47.847Z,4.20
2023-05-12T11:42:02.122Z,3.70
2023-05-12T11:46:25.550Z,4.03
2023-05-12T11:50:31.290Z,3.40
2023-05-12T11:54:37.635Z,3.47
2023-05-12T11:58:56.578Z,5.13
2023-05-12T12:03:14.378Z,4.30
2023-05-12T12:07:35.165Z,4.13
2023-05-12T12:11:40.708Z,3.73
2023-05-12T12:15:46.180Z,3.60
2023-05-12T12:19:51.654Z,3.40
2023-05-12T12:23:57.601Z,3.80
2023-05-12T12:28:03.489Z,4.10
2023-05-12T12:32:09.986Z,4.20
2023-05-12T12:36:15.449Z,3.63
2023-05-12T12:40:20.919Z,4.30
2023-05-12T12:44:26.434Z,4.20
2023-05-12T12:48:33.505Z,3.83
2023-05-12T12:52:39.067Z,3.90
2023-05-12T12:56:44.540Z,3.83
2023-05-12T13:00:50.376Z,4.00
2023-05-12T13:04:55.899Z,4.00
2023-05-12T13:09:01.699Z,3.93
2023-05-12T13:13:07.329Z,4.13
2023-05-12T13:17:12.818Z,4.23
2023-05-12T13:21:18.827Z,3.83
2023-05-12T13:25:24.356Z,3.77
2023-05-12T13:29:29.877Z,4.30
2023-05-12T13:33:35.424Z,4.30
2023-05-12T13:37:40.864Z,4.00
2023-05-12T13:41:49.100Z,4.10
2023-05-12T13:45:54.617Z,4.20
2023-05-12T13:50:00.157Z,4.23
2023-05-12T13:54:05.650Z,4.37
2023-05-12T13:58:11.141Z,3.60
2023-05-12T14:02:16.780Z,3.93
2023-05-12T14:06:22.274Z,3.70
2023-05-12T14:10:27.799Z,4.07
2023-05-12T14:14:33.259Z,3.57
2023-05-12T14:18:39.411Z,3.50
2023-05-12T14:22:45.386Z,3.23
2023-05-12T14:26:50.966Z,3.67
2023-05-12T14:30:56.469Z,4.00
2023-05-12T14:35:01.900Z,3.80
2023-05-12T14:39:08.769Z,3.57
2023-05-12T14:43:14.955Z,3.70
2023-05-12T14:47:20.614Z,3.30
2023-05-12T14:51:27.442Z,3.20
2023-05-12T14:55:32.901Z,3.57
2023-05-12T14:59:38.705Z,3.80
2023-05-12T15:03:44.376Z,4.07
2023-05-12T15:07:49.878Z,3.67
2023-05-12T15:11:55.412Z,4.03
2023-05-12T15:16:01.427Z,3.50
2023-05-12T15:20:08.135Z,3.90
2023-05-12T15:24:13.636Z,3.57
2023-05-12T15:28:19.601Z,3.70
2023-05-12T15:32:25.727Z,3.20
2023-05-12T15:36:32.345Z,3.83
2023-05-12T15:40:38.020Z,4.00
2023-05-12T15:44:43.791Z,3.53
2023-05-12T15:48:49.929Z,3.67
2023-05-12T15:52:55.767Z,4.20
2023-05-12T15:57:01.686Z,4.07
2023-05-12T16:01:07.225Z,3.70
2023-05-12T16:05:12.693Z,3.70
2023-05-12T16:09:18.400Z,4.17
2023-05-12T16:13:23.914Z,3.80
2023-05-12T16:17:29.726Z,4.47
2023-05-12T16:21:35.214Z,3.47
2023-05-12T16:25:41.991Z,3.90
2023-05-12T16:29:49.577Z,4.40
2023-05-12T16:33:55.073Z,3.77
2023-05-12T16:38:00.576Z,3.83
2023-05-12T16:42:06.492Z,3.87
2023-05-12T16:46:12.104Z,3.57
2023-05-12T16:50:18.275Z,3.47
2023-05-12T16:54:24.068Z,3.70
2023-05-12T16:58:33.566Z,3.67
2023-05-12T17:02:39.257Z,3.67
2023-05-12T17:06:44.757Z,3.83
2023-05-12T17:10:51.387Z,4.43
2023-05-12T17:15:07.013Z,3.73
2023-05-12T17:19:15.872Z,3.90
2023-05-12T17:23:21.594Z,4.00
2023-05-12T17:27:27.782Z,3.90
2023-05-12T17:31:33.324Z,3.50
2023-05-12T17:35:38.926Z,3.40
2023-05-12T17:39:44.459Z,3.60
2023-05-12T17:43:49.941Z,3.83
2023-05-12T17:47:55.548Z,4.20
2023-05-12T17:52:01.498Z,3.63
2023-05-12T17:56:07.135Z,4.23
2023-05-12T18:00:13.566Z,3.60
2023-05-12T18:04:19.374Z,4.10
2023-05-12T18:08:24.843Z,4.63
2023-05-12T18:12:31.165Z,4.53
2023-05-12T18:16:37.324Z,4.27
2023-05-12T18:20:43.009Z,3.83
2023-05-12T18:24:48.668Z,4.07
2023-05-12T18:28:54.111Z,4.30
2023-05-12T18:32:59.660Z,4.30
2023-05-12T18:37:05.488Z,4.43
2023-05-12T18:41:12.317Z,4.70
2023-05-12T18:45:18.903Z,4.23
2023-05-12T18:49:25.312Z,4.90
2023-05-12T18:53:30.962Z,4.40
2023-05-12T18:57:36.517Z,4.20
2023-05-12T19:01:42.126Z,4.97
2023-05-12T19:05:48.917Z,5.53
2023-05-12T19:09:54.752Z,5.87
2023-05-12T19:14:00.207Z,4.40
2023-05-12T19:18:05.807Z,4.67
2023-05-12T19:22:11.262Z,4.73
2023-05-12T19:26:16.719Z,4.30
2023-05-12T19:30:22.179Z,4.70
2023-05-12T19:34:29.721Z,4.43
2023-05-12T19:38:35.296Z,4.90
2023-05-12T19:42:42.316Z,5.40
2023-05-12T19:46:48.184Z,5.13
2023-05-12T19:50:54.335Z,4.50
2023-05-12T19:54:59.999Z,4.83
2023-05-12T19:59:05.450Z,5.30
2023-05-12T20:03:11.252Z,4.70
2023-05-12T20:07:17.112Z,5.83
2023-05-12T20:11:22.692Z,4.30
2023-05-12T20:15:29.272Z,5.17
2023-05-12T20:19:35.612Z,5.20
2023-05-12T20:23:41.631Z,5.77
2023-05-12T20:27:47.103Z,4.53
2023-05-12T20:31:53.089Z,4.87
2023-05-12T20:35:58.608Z,5.33
2023-05-12T20:40:05.386Z,5.50
2023-05-12T20:44:11.206Z,5.90
2023-05-12T20:48:16.724Z,4.57
2023-05-12T20:52:23.283Z,5.27
2023-05-12T20:56:28.803Z,5.17
2023-05-12T21:00:34.434Z,4.70
2023-05-12T21:04:39.871Z,5.53
2023-05-12T21:08:46.774Z,5.67
2023-05-12T21:12:52.256Z,4.33
2023-05-12T21:16:57.864Z,4.70
2023-05-12T21:21:04.816Z,4.97
2023-05-12T21:25:10.706Z,4.60
2023-05-12T21:29:16.363Z,5.37
2023-05-12T21:33:21.953Z,4.77
2023-05-12T21:37:27.598Z,4.70
2023-05-12T21:41:33.060Z,5.00
2023-05-12T21:45:38.541Z,5.33
2023-05-12T21:49:44.890Z,4.93
2023-05-12T21:53:51.101Z,5.00
2023-05-12T21:57:56.611Z,4.73
2023-05-12T22:02:02.167Z,5.43
2023-05-12T22:06:08.191Z,4.97
2023-05-12T22:10:13.667Z,4.70
2023-05-12T22:14:19.151Z,5.10
2023-05-12T22:18:24.661Z,5.27
2023-05-12T22:22:30.124Z,5.37
2023-05-12T22:26:35.625Z,5.40
2023-05-12T22:30:41.919Z,5.57
2023-05-12T22:34:47.443Z,5.70
2023-05-12T22:38:53.029Z,5.43
2023-05-12T22:42:58.470Z,6.33
2023-05-12T22:47:04.665Z,5.50
2023-05-12T22:51:10.448Z,5.57
2023-05-12T22:55:15.899Z,5.13
2023-05-12T22:59:21.340Z,5.50
2023-05-12T23:03:26.790Z,5.60
2023-05-12T23:07:32.260Z,5.57
2023-05-12T23:11:37.778Z,5.87
2023-05-12T23:15:43.246Z,5.50
2023-05-12T23:19:48.730Z,4.90
2023-05-12T23:23:54.193Z,5.40
2023-05-12T23:27:59.626Z,5.90
2023-05-12T23:32:05.795Z,5.27
2023-05-12T23:36:11.322Z,5.17
2023-05-12T23:40:16.786Z,5.37
2023-05-12T23:44:22.254Z,5.57
2023-05-12T23:48:28.519Z,5.43
2023-05-12T23:52:33.972Z,5.80
2023-05-12T23:56:39.468Z,6.07
